Data for 04/19/2018

Time Sea-Level Adjusted Pressure Absolute Pressure Temperature Relative Humidity Dew Point   
(mb) (inHg) (mb) (inHg) (C) (F) (%) (C) (F)
00:05 1021 30.15 850 25.1 4.7 40.4 41 -7.5 18.4
00:10 1020 30.12 850 25.1 4.5 40.2 41 -7.6 18.3
00:15 1020 30.12 850 25.1 4.5 40.1 41 -7.6 18.3
00:20 1020 30.12 850 25.1 4.5 40.1 42 -7.4 18.7
00:25 1020 30.12 850 25.1 4.4 39.9 43 -7.3 18.9
00:30 1020 30.12 850 25.1 4.3 39.8 43 -7.3 18.9
00:35 1020 30.12 850 25.1 4.3 39.7 43 -7.1 19.1
00:40 1020 30.12 850 25.1 4.2 39.5 44 -7.1 19.3
00:45 1020 30.12 850 25.1 4.2 39.6 44 -7.1 19.2
00:50 1020 30.12 849 25.07 4.2 39.5 44 -7 19.4
00:55 1020 30.12 849 25.07 4.1 39.3 45 -6.9 19.6
01:00 1020 30.12 849 25.07 4 39.1 45 -6.8 19.7
01:05 1020 30.12 850 25.1 3.9 39 45 -6.9 19.7
01:10 1020 30.12 850 25.1 3.8 38.9 46 -6.8 19.8
01:15 1020 30.12 850 25.1 3.7 38.6 46 -6.8 19.8
01:20 1020 30.12 850 25.1 3.6 38.5 47 -6.7 19.9
01:25 1020 30.12 850 25.1 3.6 38.4 47 -6.7 19.9
01:30 1020 30.12 850 25.1 3.5 38.3 47 -6.7 20
01:35 1020 30.12 849 25.07 3.5 38.2 48 -6.7 20
01:40 1020 30.12 849 25.07 3.4 38.1 48 -6.6 20.2
01:45 1020 30.12 849 25.07 3.4 38.1 48 -6.6 20.1
01:50 1020 30.12 849 25.07 3.3 37.9 49 -6.5 20.4
01:55 1020 30.12 849 25.07 3.3 37.9 48 -6.7 19.9
02:00 1020 30.12 849 25.07 3.4 38.1 48 -6.6 20.1
02:05 1020 30.12 849 25.07 3.3 38 47 -6.8 19.7
02:10 1020 30.12 849 25.07 3.4 38.2 47 -6.8 19.8
02:15 1020 30.12 849 25.07 3.4 38.1 47 -6.9 19.5
02:20 1020 30.12 849 25.07 3.5 38.2 46 -7 19.4
02:25 1020 30.12 849 25.07 3.5 38.3 47 -6.8 19.7
02:30 1020 30.12 849 25.07 3.3 38 48 -6.6 20.1
02:35 1020 30.12 849 25.07 3.3 37.9 48 -6.8 19.8
02:40 1020 30.12 849 25.07 3.2 37.8 49 -6.6 20.2
02:45 1020 30.12 849 25.07 3 37.5 50 -6.5 20.3
02:50 1020 30.12 849 25.07 3 37.3 50 -6.5 20.3
02:55 1020 30.12 849 25.07 2.9 37.3 50 -6.6 20.2
03:00 1020 30.12 849 25.07 3 37.3 50 -6.5 20.2
03:05 1020 30.12 849 25.07 3 37.4 49 -6.7 19.9
03:10 1020 30.12 849 25.07 3 37.5 49 -6.6 20.1
03:15 1020 30.12 849 25.07 3.1 37.5 49 -6.7 19.9
03:20 1020 30.12 849 25.07 3.1 37.5 48 -6.8 19.7
03:25 1020 30.12 849 25.07 3.1 37.6 48 -6.8 19.8
03:30 1020 30.12 849 25.07 3.2 37.7 48 -6.8 19.7
03:35 1020 30.12 849 25.07 3.1 37.7 48 -6.8 19.8
03:40 1020 30.12 849 25.07 3 37.5 49 -6.7 20
03:45 1020 30.12 849 25.07 3 37.4 49 -6.7 19.9
03:50 1020 30.12 849 25.07 3 37.5 49 -6.7 20
03:55 1020 30.12 849 25.07 2.9 37.3 49 -6.7 20
04:00 1020 30.12 849 25.07 2.9 37.2 50 -6.7 20
04:05 1020 30.12 849 25.07 2.9 37.1 50 -6.7 20
04:10 1020 30.12 849 25.07 2.8 37.1 49 -6.8 19.7
04:15 1020 30.12 849 25.07 2.8 37.1 50 -6.7 20
04:20 1020 30.12 849 25.07 2.8 37.1 48 -7 19.4
04:25 1020 30.12 849 25.07 3 37.4 49 -6.8 19.8
04:30 1020 30.12 849 25.07 3 37.3 49 -6.8 19.8
04:35 1020 30.12 849 25.07 2.9 37.2 49 -6.8 19.8
04:40 1020 30.12 849 25.07 2.9 37.2 49 -6.9 19.6
04:45 1020 30.12 849 25.07 3 37.3 49 -6.9 19.7
04:50 1020 30.12 849 25.07 3 37.3 49 -6.8 19.8
04:55 1020 30.12 849 25.07 3 37.3 49 -6.7 20
05:00 1020 30.12 849 25.07 2.8 37.1 49 -6.8 19.7
05:05 1020 30.12 849 25.07 3 37.4 48 -6.9 19.6
05:10 1020 30.12 849 25.07 3 37.4 49 -6.8 19.8
05:15 1020 30.12 849 25.07 2.9 37.3 49 -6.9 19.6
05:20 1020 30.12 849 25.07 2.9 37.3 49 -6.8 19.7
05:25 1020 30.12 849 25.07 2.9 37.3 48 -6.9 19.5
05:30 1020 30.12 849 25.07 2.9 37.3 49 -6.9 19.6
05:35 1020 30.12 849 25.07 2.9 37.2 49 -6.8 19.7
05:40 1020 30.12 849 25.07 2.8 37.1 49 -6.8 19.8
05:45 1020 30.12 849 25.07 2.8 37 49 -6.8 19.8
05:50 1020 30.12 849 25.07 2.8 37 49 -7 19.4
05:55 1020 30.12 849 25.07 2.7 36.9 50 -6.8 19.8
06:00 1020 30.12 849 25.07 2.7 36.8 49 -6.9 19.5
06:05 1020 30.12 849 25.07 2.7 36.9 49 -7 19.4
06:10 1020 30.12 849 25.07 2.7 36.9 48 -7.1 19.2
06:15 1020 30.12 849 25.07 2.8 37 48 -7.1 19.3
06:20 1020 30.12 849 25.07 2.8 37 49 -6.9 19.5
06:25 1020 30.12 849 25.07 2.7 36.9 49 -7 19.5
06:30 1020 30.12 849 25.07 2.7 36.9 49 -6.9 19.6
06:35 1020 30.12 849 25.07 2.7 36.8 49 -6.9 19.5
06:40 1020 30.12 849 25.07 2.6 36.7 49 -6.9 19.5
06:45 1020 30.12 849 25.07 2.6 36.7 50 -6.9 19.6
06:50 1020 30.12 849 25.07 2.5 36.6 50 -7 19.5
06:55 1020 30.12 849 25.07 2.6 36.6 49 -7 19.4
07:00 1020 30.12 849 25.07 2.6 36.6 49 -7 19.4
07:05 1020 30.12 849 25.07 2.6 36.6 49 -7 19.4
07:10 1020 30.12 849 25.07 2.6 36.6 50 -6.9 19.5
07:15 1020 30.12 849 25.07 2.5 36.6 49 -7 19.4
07:20 1020 30.12 849 25.07 2.6 36.6 50 -7 19.5
07:25 1020 30.12 849 25.07 2.5 36.6 50 -6.9 19.5
07:30 1020 30.12 849 25.07 2.5 36.5 50 -6.9 19.6
07:35 1020 30.12 849 25.07 2.5 36.5 50 -6.9 19.5
07:40 1020 30.12 849 25.07 2.5 36.5 49 -7 19.3
07:45 1020 30.12 849 25.07 2.5 36.5 49 -7.1 19.3
07:50 1020 30.12 849 25.07 2.5 36.6 50 -7 19.5
07:55 1020 30.12 849 25.07 2.5 36.6 49 -7 19.4
08:00 1020 30.12 849 25.07 2.6 36.6 49 -7 19.4
08:05 1020 30.12 849 25.07 2.6 36.7 49 -7.1 19.2
08:10 1020 30.12 849 25.07 2.6 36.6 49 -7.1 19.3
08:15 1020 30.12 849 25.07 2.6 36.6 48 -7.3 18.9
08:20 1020 30.12 849 25.07 2.6 36.7 48 -7.2 19.1
08:25 1020 30.12 849 25.07 2.7 36.8 49 -7.1 19.2
08:30 1020 30.12 849 25.07 2.7 36.9 49 -7.1 19.3
08:35 1020 30.12 849 25.07 2.7 36.9 48 -7.1 19.2
08:40 1020 30.12 849 25.07 2.7 36.9 48 -7.1 19.2
08:45 1020 30.12 849 25.07 2.8 37.1 48 -7.1 19.2
08:50 1020 30.12 849 25.07 2.9 37.2 49 -6.8 19.7
08:55 1020 30.12 849 25.07 3 37.4 48 -7 19.4
09:00 1020 30.12 849 25.07 2.9 37.2 49 -6.9 19.6
09:05 1020 30.12 849 25.07 2.9 37.3 48 -7 19.4
09:10 1020 30.12 849 25.07 3.1 37.5 48 -7 19.5
09:15 1020 30.12 849 25.07 3.2 37.8 47 -7.1 19.2
09:20 1020 30.12 849 25.07 3.3 38 47 -6.9 19.6
09:25 1020 30.12 849 25.07 3.5 38.4 45 -7.2 19
09:30 1020 30.12 849 25.07 3.7 38.7 45 -7.2 19
09:35 1020 30.12 849 25.07 3.8 38.8 45 -7.1 19.2
09:40 1020 30.12 849 25.07 3.9 39 44 -7.1 19.2
09:45 1020 30.12 849 25.07 4 39.2 44 -7.2 19.1
09:50 1020 30.12 849 25.07 4.1 39.3 44 -7.2 19.1
09:55 1020 30.12 849 25.07 4.2 39.6 44 -7.1 19.3
10:00 1020 30.12 849 25.07 4.3 39.8 44 -7 19.4
10:05 1020 30.12 849 25.07 4.5 40.1 43 -6.9 19.5
10:10 1020 30.12 849 25.07 4.6 40.3 43 -7 19.5
10:15 1020 30.12 849 25.07 4.9 40.8 42 -6.8 19.7
10:20 1020 30.12 849 25.07 5.4 41.8 40 -7 19.4
10:25 1020 30.12 849 25.07 5.7 42.3 39 -7.2 19
10:30 1020 30.12 849 25.07 6 42.7 38 -7.4 18.8
10:35 1020 30.12 849 25.07 6.2 43.1 38 -7.2 19.1
10:40 1020 30.12 849 25.07 6.6 43.8 37 -7.2 19
10:45 1020 30.12 849 25.07 6.2 43.2 39 -6.8 19.7
10:50 1020 30.12 849 25.07 6.2 43.2 41 -6.1 21
10:55 1020 30.12 849 25.07 6.1 43 41 -6.1 21
11:00 1020 30.12 849 25.07 6.2 43.1 41 -6.1 21
11:05 1020 30.12 849 25.07 7 44.6 38 -6.4 20.5
11:10 1020 30.12 849 25.07 7.1 44.7 39 -6.1 21.1
11:15 1020 30.12 849 25.07 7 44.5 39 -5.9 21.4
11:20 1020 30.12 849 25.07 7.4 45.2 37 -6.5 20.3
11:25 1020 30.12 849 25.07 8 46.4 37 -5.7 21.7
11:30 1020 30.12 849 25.07 7 44.6 39 -6 21.2
11:35 1020 30.12 849 25.07 7.4 45.2 38 -5.9 21.4
11:40 1020 30.12 849 25.07 7.5 45.5 36 -6.6 20.1
11:45 1020 30.12 849 25.07 8.5 47.3 36 -5.6 21.9
11:50 1020 30.12 849 25.07 8 46.4 36 -6.1 21.1
11:55 1020 30.12 849 25.07 8.3 46.9 37 -5.6 22
12:00 1020 30.12 849 25.07 8.6 47.5 31 -7.4 18.6
12:05 1020 30.12 849 25.07 10 49.9 30 -7 19.4
12:10 1020 30.12 849 25.07 10.1 50.2 28 -7.4 18.7
12:15 1019 30.09 849 25.07 10.4 50.8 28 -7.4 18.7
12:20 1019 30.09 849 25.07 10.3 50.6 31 -6.2 20.9
12:25 1019 30.09 849 25.07 10.1 50.3 29 -6.9 19.6
12:30 1019 30.09 848 25.04 10.1 50.2 32 -5.8 21.5
12:35 1019 30.09 848 25.04 10.1 50.1 28 -7.5 18.6
12:40 1019 30.09 848 25.04 10.6 51 29 -6.6 20
12:45 1019 30.09 848 25.04 10.7 51.3 28 -7.1 19.2
12:50 1019 30.09 848 25.04 10.5 50.8 29 -6.7 20
12:55 1019 30.09 848 25.04 10.6 51.1 28 -7.1 19.3
13:00 1019 30.09 848 25.04 10.8 51.4 29 -6.6 20.2
13:05 1019 30.09 848 25.04 10.8 51.5 29 -6.4 20.5
13:10 1019 30.09 848 25.04 11.1 51.9 29 -6.3 20.7
13:15 1019 30.09 848 25.04 11 51.8 28 -6.6 20.2
13:20 1019 30.09 848 25.04 10.7 51.3 30 -6.2 20.8
13:25 1019 30.09 848 25.04 10.7 51.3 29 -6.6 20.1
13:30 1019 30.09 848 25.04 10.9 51.6 29 -6.2 20.8
13:35 1018 30.06 848 25.04 10.8 51.5 29 -6.6 20.2
13:40 1018 30.06 848 25.04 11.1 52 28 -6.5 20.3
13:45 1018 30.06 848 25.04 11.1 52 28 -6.5 20.3
13:50 1018 30.06 848 25.04 11 51.7 28 -6.7 20
13:55 1018 30.06 847 25.01 11.2 52.2 28 -6.6 20.2
14:00 1018 30.06 847 25.01 11.2 52.1 29 -6.2 20.8
14:05 1018 30.06 847 25.01 11.5 52.7 29 -6 21.2
14:10 1018 30.06 847 25.01 11.4 52.5 29 -6.1 21
14:15 1018 30.06 847 25.01 11.4 52.5 29 -6 21.2
14:20 1018 30.06 847 25.01 11.6 52.8 29 -6 21.2
14:25 1018 30.06 847 25.01 11.2 52.2 29 -6 21.2
14:30 1018 30.06 847 25.01 11 51.7 30 -6.1 21.1
14:35 1018 30.06 847 25.01 11.5 52.8 29 -6.1 21.1
14:40 1018 30.06 847 25.01 11.5 52.6 29 -6 21.1
14:45 1018 30.06 847 25.01 11.4 52.4 29 -6 21.3
14:50 1018 30.06 847 25.01 11.9 53.4 28 -5.9 21.3
14:55 1018 30.06 847 25.01 12.3 54.2 27 -6.1 21
15:00 1018 30.06 847 25.01 12.7 54.8 25 -6.6 20.2
15:05 1018 30.06 847 25.01 12.3 54.1 26 -6.7 19.9
15:10 1018 30.06 847 25.01 12.1 53.8 25 -7.3 18.9
15:15 1018 30.06 847 25.01 12.6 54.7 25 -6.7 20
15:20 1018 30.06 847 25.01 12.5 54.5 26 -6.5 20.3
15:25 1018 30.06 847 25.01 12.5 54.6 27 -5.8 21.6
15:30 1018 30.06 847 25.01 12.4 54.4 25 -6.8 19.8
15:35 1018 30.06 847 25.01 12.7 54.8 25 -6.7 20
15:40 1018 30.06 847 25.01 12.6 54.8 27 -5.9 21.3
15:45 1018 30.06 847 25.01 12.9 55.3 25 -6.5 20.3
15:50 1018 30.06 847 25.01 12.7 54.9 27 -5.8 21.6
15:55 1018 30.06 847 25.01 12.7 54.9 26 -6.4 20.4
16:00 1018 30.06 847 25.01 12.5 54.5 25 -6.7 19.9
16:05 1018 30.06 847 25.01 12.5 54.5 24 -7.2 19
16:10 1018 30.06 847 25.01 12.6 54.6 24 -7.2 19
16:15 1018 30.06 847 25.01 12.5 54.4 25 -7.1 19.3
16:20 1018 30.06 847 25.01 12.5 54.5 26 -6.5 20.3
16:25 1018 30.06 847 25.01 12.4 54.3 25 -7 19.3
16:30 1018 30.06 847 25.01 12.8 55 24 -7.2 19.1
16:35 1018 30.06 847 25.01 12.9 55.3 25 -6.7 19.9
16:40 1018 30.06 847 25.01 12.6 54.7 24 -7.4 18.7
16:45 1018 30.06 847 25.01 12.6 54.7 25 -6.9 19.6
16:50 1018 30.06 847 25.01 12.8 55 25 -6.9 19.6
16:55 1018 30.06 847 25.01 12.6 54.7 25 -6.6 20
17:00 1018 30.06 847 25.01 12.8 55 27 -5.9 21.3
17:05 1018 30.06 847 25.01 12.9 55.2 26 -6 21.2
17:10 1018 30.06 847 25.01 12.8 55 27 -5.8 21.5
17:15 1018 30.06 847 25.01 13.1 55.5 27 -5.6 21.9
17:20 1018 30.06 847 25.01 12.9 55.2 26 -6 21.2
17:25 1018 30.06 847 25.01 13.3 55.9 26 -5.8 21.5
17:30 1018 30.06 847 25.01 13 55.5 27 -5.5 22
17:35 1018 30.06 847 25.01 13.1 55.6 26 -5.7 21.7
17:40 1018 30.06 847 25.01 12.7 54.8 27 -5.8 21.5
17:45 1018 30.06 847 25.01 12.9 55.1 26 -6 21.3
17:50 1018 30.06 847 25.01 12.7 54.8 27 -6 21.2
17:55 1018 30.06 847 25.01 12.6 54.7 27 -5.9 21.3
18:00 1018 30.06 847 25.01 12.7 54.9 27 -5.8 21.6
18:05 1018 30.06 847 25.01 12.7 54.8 28 -5.5 22.1
18:10 1018 30.06 847 25.01 12.9 55.2 27 -5.7 21.7
18:15 1018 30.06 847 25.01 12.8 55 27 -5.7 21.7
18:20 1018 30.06 847 25.01 12.5 54.4 28 -5.7 21.8
18:25 1018 30.06 847 25.01 12.5 54.4 27 -5.9 21.4
18:30 1018 30.06 847 25.01 12.4 54.3 28 -5.7 21.7
18:35 1018 30.06 847 25.01 12.5 54.4 27 -5.8 21.6
18:40 1018 30.06 847 25.01 12.4 54.3 27 -5.9 21.3
18:45 1018 30.06 847 25.01 12.4 54.3 27 -6.2 20.9
18:50 1018 30.06 847 25.01 12.3 54.1 27 -6.2 20.9
18:55 1018 30.06 847 25.01 12.2 53.9 27 -6.1 21
19:00 1018 30.06 847 25.01 12.2 53.9 27 -6.2 20.9
19:05 1018 30.06 847 25.01 12.1 53.7 27 -6.2 20.8
19:10 1018 30.06 847 25.01 11.9 53.5 27 -6.5 20.3
19:15 1018 30.06 847 25.01 11.9 53.3 27 -6.6 20.1
19:20 1018 30.06 847 25.01 11.8 53.2 27 -6.7 19.9
19:25 1018 30.06 847 25.01 11.7 53.1 27 -6.7 20
19:30 1018 30.06 847 25.01 11.7 53.1 27 -6.7 20
19:35 1018 30.06 847 25.01 11.6 52.9 27 -6.7 20
19:40 1018 30.06 847 25.01 11.5 52.8 27 -6.6 20.1
19:45 1018 30.06 847 25.01 11.4 52.5 28 -6.6 20.1
19:50 1018 30.06 847 25.01 11.4 52.5 28 -6.6 20.1
19:55 1018 30.06 847 25.01 11.2 52.2 28 -6.8 19.8
20:00 1018 30.06 847 25.01 11.1 52 28 -6.6 20.2
20:05 1018 30.06 847 25.01 11 51.8 28 -6.6 20.2
20:10 1018 30.06 847 25.01 10.9 51.5 29 -6.6 20.1
20:15 1018 30.06 847 25.01 10.8 51.4 29 -6.5 20.3
20:20 1018 30.06 847 25.01 10.7 51.2 29 -6.6 20.2
20:25 1018 30.06 847 25.01 10.6 51 29 -6.5 20.2
20:30 1018 30.06 847 25.01 10.4 50.7 31 -6.1 20.9
20:35 1018 30.06 847 25.01 10.2 50.3 31 -6.2 20.8
20:40 1018 30.06 848 25.04 10.1 50.1 30 -6.6 20.1
20:45 1018 30.06 848 25.04 10 50 30 -6.7 19.9
20:50 1018 30.06 848 25.04 9.9 49.9 30 -6.8 19.7
20:55 1018 30.06 848 25.04 9.8 49.7 31 -6.5 20.2
21:00 1018 30.06 848 25.04 9.7 49.5 31 -6.5 20.2
21:05 1018 30.06 848 25.04 9.7 49.4 31 -6.6 20.1
21:10 1018 30.06 848 25.04 9.7 49.4 31 -6.8 19.8
21:15 1018 30.06 848 25.04 9.6 49.3 31 -6.7 20
21:20 1018 30.06 848 25.04 9.5 49.2 31 -6.9 19.6
21:25 1018 30.06 848 25.04 9.5 49.1 31 -6.9 19.5
21:30 1018 30.06 848 25.04 9.5 49.1 31 -6.9 19.6
21:35 1019 30.09 848 25.04 9.4 48.9 31 -6.8 19.7
21:40 1019 30.09 848 25.04 9.3 48.8 31 -6.9 19.6
21:45 1019 30.09 848 25.04 9.2 48.6 32 -6.8 19.8
21:50 1019 30.09 848 25.04 9.1 48.4 32 -6.8 19.8
21:55 1019 30.09 848 25.04 8.9 48.1 32 -6.7 19.9
22:00 1019 30.09 848 25.04 8.8 47.8 32 -6.8 19.7
22:05 1019 30.09 848 25.04 8.6 47.5 33 -6.8 19.8
22:10 1019 30.09 848 25.04 8.5 47.3 33 -6.9 19.7
22:15 1019 30.09 848 25.04 8.4 47.2 33 -6.9 19.5
22:20 1019 30.09 848 25.04 8.3 47 33 -7 19.4
22:25 1019 30.09 848 25.04 8.4 47.1 33 -7.1 19.3
22:30 1019 30.09 848 25.04 8.3 47 33 -6.9 19.6
22:35 1019 30.09 848 25.04 8.2 46.7 34 -6.9 19.6
22:40 1019 30.09 848 25.04 8 46.4 35 -6.7 20
22:45 1019 30.09 848 25.04 7.8 46.1 35 -6.7 20
22:50 1019 30.09 848 25.04 7.7 45.8 36 -6.6 20.2
22:55 1019 30.09 848 25.04 7.6 45.7 36 -6.6 20.1
23:00 1019 30.09 848 25.04 7.5 45.5 36 -6.7 20
23:05 1019 30.09 848 25.04 7.5 45.5 36 -6.6 20.1
23:10 1019 30.09 848 25.04 7.4 45.4 36 -6.8 19.7
23:15 1019 30.09 848 25.04 7.5 45.5 36 -6.5 20.2
23:20 1019 30.09 848 25.04 7.3 45.2 37 -6.5 20.2
23:25 1019 30.09 848 25.04 7.3 45.1 37 -6.5 20.3
23:30 1019 30.09 848 25.04 7.3 45.1 37 -6.3 20.6
23:35 1019 30.09 848 25.04 7.2 45 37 -6.4 20.5
23:40 1019 30.09 848 25.04 7.2 44.9 39 -5.7 21.8
23:45 1019 30.09 848 25.04 6.7 44 44 -4.7 23.5
23:50 1019 30.09 848 25.04 6.1 43 45 -5 23
23:55 1019 30.09 849 25.07 6 42.8 42 -6.1 21.1
24:00 1019 30.09 848 25.04 6.6 43.9 43 -5.1 22.9